createdAt,value
2016-10-10T00:00:29.842Z,99.99
2016-10-10T00:01:29.865Z,99.99
2016-10-10T00:02:29.896Z,99.99
2016-10-10T00:03:29.896Z,99.99
2016-10-10T00:04:29.916Z,99.99
2016-10-10T00:05:29.623Z,99.99
2016-10-10T00:06:29.969Z,99.99
2016-10-10T00:07:29.969Z,99.99
2016-10-10T00:08:30.066Z,99.99
2016-10-10T00:09:30.006Z,99.99
2016-10-10T00:10:29.738Z,99.99
2016-10-10T00:11:30.037Z,99.99
2016-10-10T00:12:30.041Z,99.99
2016-10-10T00:13:30.067Z,99.99
2016-10-10T00:14:30.076Z,99.99
2016-10-10T00:15:30.105Z,99.99
2016-10-10T00:16:30.115Z,99.99
2016-10-10T00:17:30.137Z,99.99
2016-10-10T00:18:30.156Z,99.99
2016-10-10T00:19:30.181Z,99.99
2016-10-10T00:20:30.182Z,99.99
2016-10-10T00:21:30.206Z,99.99
2016-10-10T00:22:30.223Z,99.99
2016-10-10T00:23:30.230Z,99.99
2016-10-10T00:24:30.255Z,99.99
2016-10-10T00:25:30.275Z,99.99
2016-10-10T00:26:30.288Z,99.99
2016-10-10T00:27:30.317Z,99.99
2016-10-10T00:28:30.319Z,99.73
2016-10-10T00:29:30.333Z,99.91
2016-10-10T00:30:30.352Z,99.54
2016-10-10T00:31:30.374Z,99.99
2016-10-10T00:32:30.408Z,98.87
2016-10-10T00:33:30.410Z,98.4
2016-10-10T00:34:30.419Z,98.3
2016-10-10T00:35:30.433Z,97.74
2016-10-10T00:36:30.455Z,97.64
2016-10-10T00:37:30.475Z,97.83
2016-10-10T00:38:30.477Z,97.36
2016-10-10T00:39:30.506Z,97.55
2016-10-10T00:40:30.519Z,97.26
2016-10-10T00:41:30.537Z,97.45
2016-10-10T00:42:30.554Z,97.26
2016-10-10T00:43:30.259Z,97.55
2016-10-10T00:44:30.578Z,97.55
2016-10-10T00:45:30.598Z,97.55
2016-10-10T00:46:30.615Z,97.55
2016-10-10T00:47:30.635Z,97.55
2016-10-10T00:48:30.648Z,97.64
2016-10-10T00:49:30.669Z,97.64
2016-10-10T00:50:30.697Z,97.64
2016-10-10T00:51:30.695Z,97.17
2016-10-10T00:52:30.708Z,97.64
2016-10-10T00:53:30.727Z,97.26
2016-10-10T00:54:30.740Z,97.45
2016-10-10T00:55:30.450Z,97.45
2016-10-10T00:56:30.785Z,97.55
2016-10-10T00:57:30.798Z,97.45
2016-10-10T00:58:30.815Z,97.26
2016-10-10T00:59:30.849Z,97.26
2016-10-10T01:00:30.847Z,97.17
2016-10-10T01:01:30.963Z,97.55
2016-10-10T01:02:30.878Z,97.64
2016-10-10T01:03:30.987Z,97.45
2016-10-10T01:04:30.904Z,97.55
2016-10-10T01:05:30.974Z,97.55
2016-10-10T01:06:30.951Z,97.64
2016-10-10T01:07:31.009Z,97.36
2016-10-10T01:08:30.978Z,97.36
2016-10-10T01:09:30.991Z,97.17
2016-10-10T01:10:31.010Z,97.07
2016-10-10T01:11:31.026Z,97.36
2016-10-10T01:12:31.035Z,97.36
2016-10-10T01:13:31.054Z,96.97
2016-10-10T01:14:31.208Z,97.36
2016-10-10T01:15:31.080Z,96.97
2016-10-10T01:16:31.109Z,96.78
2016-10-10T01:17:31.119Z,96.78
2016-10-10T01:18:31.186Z,96.78
2016-10-10T01:19:31.151Z,97.36
2016-10-10T01:20:31.215Z,97.26
2016-10-10T01:21:31.199Z,97.36
2016-10-10T01:22:31.208Z,97.45
2016-10-10T01:23:31.215Z,96.59
2016-10-10T01:24:31.234Z,96.69
2016-10-10T01:25:31.271Z,97.45
2016-10-10T01:26:31.279Z,96.97
2016-10-10T01:27:31.288Z,97.45
2016-10-10T01:28:31.385Z,97.36
2016-10-10T01:29:31.404Z,96.97
2016-10-10T01:30:31.420Z,97.17
2016-10-10T01:31:31.362Z,96.97
2016-10-10T01:32:31.469Z,97.36
2016-10-10T01:33:31.397Z,96.78
2016-10-10T01:34:31.404Z,97.36
2016-10-10T01:35:31.426Z,96.97
2016-10-10T01:36:31.436Z,96.78
2016-10-10T01:37:31.458Z,96.5
2016-10-10T01:38:31.468Z,96.59
2016-10-10T01:39:31.480Z,96.59
2016-10-10T01:40:31.506Z,97.07
2016-10-10T01:41:31.525Z,96.97
2016-10-10T01:42:31.543Z,96.78
2016-10-10T01:43:31.605Z,96.59
2016-10-10T01:44:31.567Z,96.59
2016-10-10T01:45:31.679Z,96.78
2016-10-10T01:46:31.647Z,96.78
2016-10-10T01:47:31.618Z,96.78
2016-10-10T01:48:31.317Z,96.5
2016-10-10T01:49:31.644Z,96.78
2016-10-10T01:50:31.663Z,96.59
2016-10-10T01:51:31.679Z,96.88
2016-10-10T01:52:31.689Z,96.41
2016-10-10T01:53:31.705Z,96.97
2016-10-10T01:54:31.727Z,96.88
2016-10-10T01:55:31.750Z,96.97
2016-10-10T01:56:31.808Z,96.88
2016-10-10T01:57:31.770Z,96.97
2016-10-10T01:58:31.948Z,96.78
2016-10-10T01:59:31.811Z,96.78
2016-10-10T02:00:31.881Z,96.59
2016-10-10T02:01:31.849Z,96.59
2016-10-10T02:02:31.864Z,96.78
2016-10-10T02:03:31.881Z,97.36
2016-10-10T02:04:31.891Z,96.41
2016-10-10T02:05:31.910Z,96.97
2016-10-10T02:06:32.142Z,97.36
2016-10-10T02:07:31.945Z,97.07
2016-10-10T02:08:31.962Z,97.45
2016-10-10T02:09:31.987Z,97.55
2016-10-10T02:10:31.993Z,97.45
2016-10-10T02:11:32.121Z,97.55
2016-10-10T02:12:32.029Z,97.5
2016-10-10T02:13:32.085Z,97.59
2016-10-10T02:14:32.061Z,97.12
2016-10-10T02:15:32.076Z,97.12
2016-10-10T02:16:32.138Z,97.64
2016-10-10T02:17:32.106Z,97.31
2016-10-10T02:18:32.130Z,97.4
2016-10-10T02:19:32.141Z,97.4
2016-10-10T02:20:32.157Z,97.02
2016-10-10T02:21:31.853Z,97.4
2016-10-10T02:22:31.878Z,97.31
2016-10-10T02:23:32.198Z,97.21
2016-10-10T02:24:32.221Z,97.02
2016-10-10T02:25:32.250Z,97.21
2016-10-10T02:26:32.258Z,97.4
2016-10-10T02:27:32.269Z,97.31
2016-10-10T02:28:32.285Z,96.92
2016-10-10T02:29:32.303Z,97.12
2016-10-10T02:30:32.317Z,97.12
2016-10-10T02:31:32.339Z,97.02
2016-10-10T02:32:32.349Z,97.12
2016-10-10T02:33:32.368Z,97.21
2016-10-10T02:34:32.390Z,97.21
2016-10-10T02:35:32.088Z,97.4
2016-10-10T02:36:32.419Z,97.4
2016-10-10T02:37:32.429Z,97.5
2016-10-10T02:38:32.435Z,97.88
2016-10-10T02:39:32.465Z,97.4
2016-10-10T02:40:32.480Z,97.69
2016-10-10T02:41:32.501Z,97.78
2016-10-10T02:42:32.507Z,97.78
2016-10-10T02:43:32.529Z,97.78
2016-10-10T02:44:32.537Z,97.5
2016-10-10T02:45:32.563Z,97.78
2016-10-10T02:46:32.579Z,97.4
2016-10-10T02:47:32.591Z,97.5
2016-10-10T02:48:32.608Z,97.5
2016-10-10T02:49:32.618Z,97.5
2016-10-10T02:50:32.628Z,97.4
2016-10-10T02:51:32.659Z,97.4
2016-10-10T02:52:32.670Z,97.4
2016-10-10T02:53:32.680Z,97.5
2016-10-10T02:54:32.697Z,97.59
2016-10-10T02:55:32.720Z,97.4
2016-10-10T02:56:32.726Z,97.4
2016-10-10T02:57:32.749Z,97.4
2016-10-10T02:58:32.758Z,97.59
2016-10-10T02:59:32.794Z,97.5
2016-10-10T03:00:32.800Z,97.59
2016-10-10T03:01:32.829Z,97.59
2016-10-10T03:02:32.829Z,97.59
2016-10-10T03:03:32.853Z,97.5
2016-10-10T03:04:32.870Z,97.59
2016-10-10T03:05:32.872Z,97.78
2016-10-10T03:06:32.999Z,97.69
2016-10-10T03:07:32.909Z,97.78
2016-10-10T03:08:32.925Z,97.78
2016-10-10T03:09:32.946Z,97.5
2016-10-10T03:10:32.959Z,97.78
2016-10-10T03:11:32.970Z,97.5
2016-10-10T03:12:32.986Z,97.69
2016-10-10T03:13:33.021Z,97.78
2016-10-10T03:14:33.013Z,97.5
2016-10-10T03:15:33.039Z,97.4
2016-10-10T03:16:32.749Z,97.4
2016-10-10T03:17:33.067Z,97.4
2016-10-10T03:18:33.090Z,97.5
2016-10-10T03:19:33.102Z,97.59
2016-10-10T03:20:33.132Z,97.54
2016-10-10T03:21:33.131Z,97.54
2016-10-10T03:22:33.143Z,97.26
2016-10-10T03:23:33.168Z,97.83
2016-10-10T03:24:33.178Z,97.64
2016-10-10T03:25:33.231Z,97.83
2016-10-10T03:26:33.216Z,97.64
2016-10-10T03:27:33.229Z,97.92
2016-10-10T03:28:33.258Z,97.73
2016-10-10T03:29:33.251Z,97.54
2016-10-10T03:30:33.282Z,97.35
2016-10-10T03:31:33.290Z,97.73
2016-10-10T03:32:33.308Z,97.35
2016-10-10T03:33:33.328Z,97.54
2016-10-10T03:34:33.336Z,97.73
2016-10-10T03:35:33.370Z,97.54
2016-10-10T03:36:33.385Z,97.35
2016-10-10T03:37:33.389Z,97.35
2016-10-10T03:38:33.399Z,98.3
2016-10-10T03:39:33.423Z,98.3
2016-10-10T03:40:33.427Z,98.11
2016-10-10T03:41:33.447Z,98.11
2016-10-10T03:42:33.151Z,98.11
2016-10-10T03:43:33.476Z,98.11
2016-10-10T03:44:33.488Z,98.11
2016-10-10T03:45:33.507Z,98.11
2016-10-10T03:46:33.543Z,98.3
2016-10-10T03:47:33.540Z,97.45
2016-10-10T03:48:33.681Z,98.21
2016-10-10T03:49:33.663Z,98.02
2016-10-10T03:50:33.311Z,98.11
2016-10-10T03:51:33.602Z,97.35
2016-10-10T03:52:33.360Z,97.35
2016-10-10T03:53:33.669Z,97.54
2016-10-10T03:54:33.332Z,97.73
2016-10-10T03:55:33.676Z,97.54
2016-10-10T03:56:33.674Z,97.64
2016-10-10T03:57:33.692Z,97.64
2016-10-10T03:58:33.700Z,97.35
2016-10-10T03:59:33.717Z,97.92
2016-10-10T04:00:33.740Z,97.26
2016-10-10T04:01:33.759Z,97.35
2016-10-10T04:02:33.770Z,97.54
2016-10-10T04:03:33.810Z,97.45
2016-10-10T04:04:33.490Z,97.45
2016-10-10T04:05:33.512Z,97.73
2016-10-10T04:06:33.511Z,97.73
2016-10-10T04:07:33.900Z,97.73
2016-10-10T04:08:33.860Z,97.73
2016-10-10T04:09:33.566Z,97.64
2016-10-10T04:10:33.583Z,97.73
2016-10-10T04:11:33.900Z,97.73
2016-10-10T04:12:33.620Z,97.73
2016-10-10T04:13:33.935Z,97.35
2016-10-10T04:14:33.954Z,97.73
2016-10-10T04:15:33.966Z,97.26
2016-10-10T04:16:33.799Z,96.88
2016-10-10T04:17:33.998Z,96.97
2016-10-10T04:18:34.059Z,97.16
2016-10-10T04:19:34.032Z,97.16
2016-10-10T04:20:34.087Z,97.35
2016-10-10T04:21:34.057Z,96.88
2016-10-10T04:22:34.083Z,97.26
2016-10-10T04:23:34.079Z,96.5
2016-10-10T04:24:33.801Z,96.59
2016-10-10T04:25:34.120Z,96.22
2016-10-10T04:26:34.140Z,96.5
2016-10-10T04:27:34.152Z,95.93
2016-10-10T04:28:34.171Z,95.55
2016-10-10T04:29:34.182Z,95.07
2016-10-10T04:30:34.200Z,94.79
2016-10-10T04:31:34.277Z,94.51
2016-10-10T04:32:34.228Z,94.04
2016-10-10T04:33:34.308Z,93.94
2016-10-10T04:34:34.271Z,93.56
2016-10-10T04:35:34.278Z,93.84
2016-10-10T04:36:34.286Z,94.04
2016-10-10T04:37:34.351Z,93.84
2016-10-10T04:38:34.331Z,93.56
2016-10-10T04:39:34.030Z,93.65
2016-10-10T04:40:34.369Z,93.65
2016-10-10T04:41:34.368Z,93.46
2016-10-10T04:42:34.379Z,93.56
2016-10-10T04:43:34.094Z,93.46
2016-10-10T04:44:34.418Z,93.56
2016-10-10T04:45:34.431Z,93.46
2016-10-10T04:46:34.141Z,93.75
2016-10-10T04:47:34.467Z,93.84
2016-10-10T04:48:34.484Z,93.75
2016-10-10T04:49:34.484Z,93.84
2016-10-10T04:50:34.519Z,93.65
2016-10-10T04:51:34.530Z,93.65
2016-10-10T04:52:34.282Z,93.75
2016-10-10T04:53:34.556Z,93.84
2016-10-10T04:54:34.585Z,93.56
2016-10-10T04:55:34.583Z,93.56
2016-10-10T04:56:34.600Z,93.84
2016-10-10T04:57:34.614Z,93.56
2016-10-10T04:58:34.636Z,93.75
2016-10-10T04:59:34.661Z,93.46
2016-10-10T05:00:34.670Z,93.65
2016-10-10T05:01:34.683Z,93.65
2016-10-10T05:02:34.699Z,93.46
2016-10-10T05:03:34.710Z,93.46
2016-10-10T05:04:34.731Z,93.56
2016-10-10T05:05:34.740Z,93.37
2016-10-10T05:06:34.761Z,93.84
2016-10-10T05:07:34.769Z,93.37
2016-10-10T05:08:34.788Z,93.51
2016-10-10T05:09:34.798Z,93.41
2016-10-10T05:10:34.805Z,93.41
2016-10-10T05:11:34.830Z,93.89
2016-10-10T05:12:34.846Z,93.89
2016-10-10T05:13:34.857Z,93.41
2016-10-10T05:14:34.881Z,93.51
2016-10-10T05:15:34.899Z,93.89
2016-10-10T05:16:34.907Z,93.51
2016-10-10T05:17:34.926Z,93.8
2016-10-10T05:18:34.950Z,93.89
2016-10-10T05:19:34.960Z,93.8
2016-10-10T05:20:34.977Z,93.8
2016-10-10T05:21:34.992Z,93.13
2016-10-10T05:22:35.011Z,93.23
2016-10-10T05:23:35.016Z,93.04
2016-10-10T05:24:35.038Z,93.23
2016-10-10T05:25:35.061Z,93.23
2016-10-10T05:26:35.100Z,93.41
2016-10-10T05:27:35.087Z,93.51
2016-10-10T05:28:35.099Z,93.51
2016-10-10T05:29:35.118Z,93.23
2016-10-10T05:30:35.152Z,92.85
2016-10-10T05:31:35.158Z,93.04
2016-10-10T05:32:35.167Z,92.85
2016-10-10T05:33:35.173Z,93.18
2016-10-10T05:34:35.209Z,93.37
2016-10-10T05:35:35.206Z,93.13
2016-10-10T05:36:34.931Z,92.9
2016-10-10T05:37:35.278Z,93.08
2016-10-10T05:38:35.460Z,93.32
2016-10-10T05:39:35.275Z,92.94
2016-10-10T05:40:35.275Z,93.65
2016-10-10T05:41:35.320Z,93.41
2016-10-10T05:42:35.320Z,93.32
2016-10-10T05:43:35.438Z,93.23
2016-10-10T05:44:35.359Z,93.51
2016-10-10T05:45:35.487Z,93.13
2016-10-10T05:46:35.393Z,93.23
2016-10-10T05:47:35.102Z,93.23
2016-10-10T05:48:35.428Z,93.23
2016-10-10T05:49:35.440Z,93.23
2016-10-10T05:50:35.140Z,93.04
2016-10-10T05:51:35.464Z,92.94
2016-10-10T05:52:35.163Z,93.23
2016-10-10T05:53:35.623Z,93.23
2016-10-10T05:54:35.537Z,93.23
2016-10-10T05:55:35.611Z,93.23
2016-10-10T05:56:35.653Z,93.13
2016-10-10T05:57:35.357Z,93.23
2016-10-10T05:58:35.572Z,93.23
2016-10-10T05:59:35.600Z,93.8
2016-10-10T06:00:35.657Z,93.23
2016-10-10T06:01:35.320Z,93.23
2016-10-10T06:02:35.635Z,93.23
2016-10-10T06:03:35.659Z,93.04
2016-10-10T06:04:35.678Z,93.04
2016-10-10T06:05:35.688Z,93.8
2016-10-10T06:06:35.723Z,93.89
2016-10-10T06:07:35.739Z,93.8
2016-10-10T06:08:35.820Z,93.89
2016-10-10T06:09:35.758Z,93.89
2016-10-10T06:10:35.886Z,93.89
2016-10-10T06:11:35.800Z,93.84
2016-10-10T06:12:35.823Z,93.65
2016-10-10T06:13:35.904Z,93.84
2016-10-10T06:14:35.850Z,93.27
2016-10-10T06:15:35.850Z,93.18
2016-10-10T06:16:35.870Z,93.08
2016-10-10T06:17:35.891Z,93.08
2016-10-10T06:18:35.899Z,93.27
2016-10-10T06:19:35.918Z,93.27
2016-10-10T06:20:35.937Z,93.08
2016-10-10T06:21:36.059Z,93.18
2016-10-10T06:22:35.647Z,93.18
2016-10-10T06:23:35.974Z,92.99
2016-10-10T06:24:36.001Z,92.8
2016-10-10T06:25:36.017Z,93.89
2016-10-10T06:26:36.038Z,93.7
2016-10-10T06:27:36.036Z,93.51
2016-10-10T06:28:36.064Z,93.41
2016-10-10T06:29:35.784Z,93.89
2016-10-10T06:30:36.088Z,94.37
2016-10-10T06:31:36.118Z,94.27
2016-10-10T06:32:36.115Z,94.37
2016-10-10T06:33:36.147Z,94.84
2016-10-10T06:34:36.197Z,94.46
2016-10-10T06:35:36.173Z,94.84
2016-10-10T06:36:36.420Z,94.65
2016-10-10T06:37:36.215Z,95.03
2016-10-10T06:38:36.248Z,94.84
2016-10-10T06:39:36.248Z,95.22
2016-10-10T06:40:36.260Z,94.93
2016-10-10T06:41:35.961Z,94.93
2016-10-10T06:42:35.975Z,95.12
2016-10-10T06:43:36.320Z,94.84
2016-10-10T06:44:36.326Z,95.22
2016-10-10T06:45:36.540Z,95.46
2016-10-10T06:46:36.355Z,95.65
2016-10-10T06:47:36.381Z,95.75
2016-10-10T06:48:36.400Z,95.84
2016-10-10T06:49:36.407Z,95.94
2016-10-10T06:50:36.430Z,96.41
2016-10-10T06:51:36.446Z,97.36
2016-10-10T06:52:36.134Z,97.74
2016-10-10T06:53:36.472Z,97.83
2016-10-10T06:54:36.179Z,98.5
2016-10-10T06:55:36.525Z,98.12
2016-10-10T06:56:36.217Z,98.21
2016-10-10T06:57:36.555Z,99.73
2016-10-10T06:58:36.558Z,99.16
2016-10-10T06:59:36.582Z,99.92
2016-10-10T07:00:36.588Z,99.35
2016-10-10T07:01:36.611Z,99.26
2016-10-10T07:02:36.637Z,99.88
2016-10-10T07:03:36.636Z,99.78
2016-10-10T07:04:36.671Z,99.78
2016-10-10T07:05:36.670Z,99.97
2016-10-10T07:06:36.705Z,99.99
2016-10-10T07:07:36.709Z,99.99
2016-10-10T07:08:36.725Z,99.97
2016-10-10T07:09:36.742Z,99.97
2016-10-10T07:10:36.768Z,99.99
2016-10-10T07:11:36.462Z,99.99
2016-10-10T07:12:36.798Z,99.99
2016-10-10T07:13:37.067Z,99.99
2016-10-10T07:14:37.083Z,99.99
2016-10-10T07:15:37.099Z,99.99
2016-10-10T07:16:36.868Z,99.99
2016-10-10T07:17:36.824Z,99.99
2016-10-10T07:18:37.107Z,99.99
2016-10-10T07:19:37.118Z,99.99
2016-10-10T07:20:37.128Z,99.99
2016-10-10T07:21:37.138Z,99.99
2016-10-10T07:22:36.949Z,99.99
2016-10-10T07:23:36.837Z,99.99
2016-10-10T07:24:37.181Z,99.99
2016-10-10T07:25:37.177Z,99.99
2016-10-10T07:26:37.347Z,99.99
2016-10-10T07:27:37.262Z,99.99
2016-10-10T07:28:37.179Z,99.99
2016-10-10T07:29:37.254Z,99.99
2016-10-10T07:30:37.849Z,99.99
2016-10-10T07:31:37.229Z,99.99
2016-10-10T07:32:36.886Z,99.99
2016-10-10T07:33:37.315Z,99.99
2016-10-10T07:34:37.187Z,99.99
2016-10-10T07:35:37.286Z,99.99
2016-10-10T07:36:37.224Z,99.99
2016-10-10T07:37:37.231Z,99.99
2016-10-10T07:38:37.249Z,99.99
2016-10-10T07:39:37.289Z,99.93
2016-10-10T07:40:37.307Z,99.84
2016-10-10T07:41:37.088Z,99.74
2016-10-10T07:42:37.005Z,99.93
2016-10-10T07:43:37.078Z,99.74
2016-10-10T07:44:37.471Z,99.74
2016-10-10T07:45:37.382Z,99.36
2016-10-10T07:46:37.610Z,99.22
2016-10-10T07:47:37.420Z,99.51
2016-10-10T07:48:37.480Z,98.84
2016-10-10T07:49:37.138Z,99.13
2016-10-10T07:50:37.477Z,98.94
2016-10-10T07:51:37.500Z,99.22
2016-10-10T07:52:37.508Z,98.84
2016-10-10T07:53:37.521Z,98.74
2016-10-10T07:54:37.537Z,98.55
2016-10-10T07:55:37.555Z,98.89
2016-10-10T07:56:37.637Z,98.79
2016-10-10T07:57:37.748Z,98.51
2016-10-10T07:58:37.766Z,98.41
2016-10-10T07:59:37.637Z,98.03
2016-10-10T08:00:37.688Z,97.75
2016-10-10T08:01:37.680Z,97.27
2016-10-10T08:02:37.689Z,97.75
2016-10-10T08:03:37.694Z,97.08
2016-10-10T08:04:37.726Z,96.51
2016-10-10T08:05:37.760Z,96.7
2016-10-10T08:06:37.763Z,97.17
2016-10-10T08:07:37.779Z,97.65
2016-10-10T08:08:37.492Z,97.56
2016-10-10T08:09:37.600Z,98.22
2016-10-10T08:10:37.529Z,97.17
2016-10-10T08:11:37.855Z,97.17
2016-10-10T08:12:37.886Z,97.17
2016-10-10T08:13:37.966Z,97.75
2016-10-10T08:14:37.918Z,97.94
2016-10-10T08:15:37.939Z,98.03
2016-10-10T08:16:37.975Z,98.6
2016-10-10T08:17:37.976Z,98.79
2016-10-10T08:18:37.995Z,98.03
2016-10-10T08:19:38.016Z,97.36
2016-10-10T08:20:38.017Z,96.89
2016-10-10T08:21:38.057Z,97.75
2016-10-10T08:22:38.082Z,97.46
2016-10-10T08:23:38.094Z,97.75
2016-10-10T08:24:38.171Z,97.94
2016-10-10T08:25:38.128Z,97.84
2016-10-10T08:26:38.199Z,97.56
2016-10-10T08:27:38.183Z,97.03
2016-10-10T08:28:38.180Z,96.84
2016-10-10T08:29:38.219Z,97.03
2016-10-10T08:30:38.470Z,96.17
2016-10-10T08:31:38.246Z,96.56
2016-10-10T08:32:38.257Z,96.08
2016-10-10T08:33:38.288Z,95.32
2016-10-10T08:34:38.293Z,95.41
2016-10-10T08:35:38.038Z,95.51
2016-10-10T08:36:38.334Z,95.37
2016-10-10T08:37:38.107Z,94.79
2016-10-10T08:38:38.070Z,93.93
2016-10-10T08:39:38.401Z,93.93
2016-10-10T08:40:38.109Z,94.03
2016-10-10T08:41:38.431Z,93.41
2016-10-10T08:42:38.459Z,93.22
2016-10-10T08:43:38.469Z,92.83
2016-10-10T08:44:38.177Z,92.93
2016-10-10T08:45:38.518Z,92.69
2016-10-10T08:46:38.527Z,91.98
2016-10-10T08:47:38.556Z,91.55
2016-10-10T08:48:38.588Z,91.55
2016-10-10T08:49:38.598Z,90.88
2016-10-10T08:50:38.618Z,90.59
2016-10-10T08:51:38.638Z,90.31
2016-10-10T08:52:38.657Z,90.4
2016-10-10T08:53:38.378Z,90.45
2016-10-10T08:54:38.691Z,89.39
2016-10-10T08:55:38.401Z,88.59
2016-10-10T08:56:38.737Z,87.82
2016-10-10T08:57:38.435Z,89.06
2016-10-10T08:58:38.479Z,90.69
2016-10-10T08:59:38.798Z,90.11
2016-10-10T09:00:38.928Z,90.21
2016-10-10T09:01:38.828Z,89.64
2016-10-10T09:02:38.878Z,89.39
2016-10-10T09:03:38.574Z,88.92
2016-10-10T09:04:38.894Z,89.01
2016-10-10T09:05:38.918Z,88.77
2016-10-10T09:06:38.949Z,88.1
2016-10-10T09:07:38.954Z,86.76
2016-10-10T09:08:38.978Z,86.57
2016-10-10T09:09:38.993Z,86.1
2016-10-10T09:10:39.014Z,86.86
2016-10-10T09:11:39.046Z,86.96
2016-10-10T09:12:39.055Z,87.43
2016-10-10T09:13:39.099Z,88.01
2016-10-10T09:14:39.099Z,87.77
2016-10-10T09:15:39.128Z,87.91
2016-10-10T09:16:39.157Z,88.39
2016-10-10T09:17:39.173Z,87.62
2016-10-10T09:18:39.200Z,87.53
2016-10-10T09:19:39.226Z,86.71
2016-10-10T09:20:39.225Z,85.18
2016-10-10T09:21:39.260Z,85.09
2016-10-10T09:22:39.281Z,84.52
2016-10-10T09:23:39.294Z,83.84
2016-10-10T09:24:39.325Z,84.38
2016-10-10T09:25:39.028Z,85.33
2016-10-10T09:26:39.359Z,86.96
2016-10-10T09:27:39.388Z,87.29
2016-10-10T09:28:39.431Z,89.45
2016-10-10T09:29:39.421Z,91.12
2016-10-10T09:30:39.439Z,92.93
2016-10-10T09:31:39.465Z,93.36
2016-10-10T09:32:39.489Z,94.7
2016-10-10T09:33:39.199Z,94.79
2016-10-10T09:34:39.218Z,92.41
2016-10-10T09:35:39.545Z,92.12
2016-10-10T09:36:39.263Z,91.83
2016-10-10T09:37:39.290Z,92.41
2016-10-10T09:38:39.710Z,93.36
2016-10-10T09:39:39.775Z,94.41
2016-10-10T09:40:39.660Z,93.46
2016-10-10T09:41:39.689Z,93.36
2016-10-10T09:42:39.695Z,93.46
2016-10-10T09:43:39.710Z,91.83
2016-10-10T09:44:39.727Z,92.79
2016-10-10T09:45:39.760Z,92.32
2016-10-10T09:46:39.468Z,93.08
2016-10-10T09:47:39.530Z,93.36
2016-10-10T09:48:39.817Z,93.36
2016-10-10T09:49:39.633Z,92.6
2016-10-10T09:50:39.950Z,93.41
2016-10-10T09:51:39.975Z,92.46
2016-10-10T09:52:39.900Z,91.41
2016-10-10T09:53:39.921Z,91.03
2016-10-10T09:54:39.929Z,91.5
2016-10-10T09:55:39.636Z,91.79
2016-10-10T09:57:39.987Z,93.03
2016-10-10T09:58:40.015Z,91.41
2016-10-10T09:59:40.031Z,92.17
2016-10-10T10:00:40.056Z,92.74
2016-10-10T10:01:40.068Z,92.27
2016-10-10T10:02:40.104Z,92.36
2016-10-10T10:03:40.110Z,92.17
2016-10-10T10:04:40.277Z,92.65
2016-10-10T10:05:39.840Z,93.22
2016-10-10T10:06:40.166Z,92.27
2016-10-10T10:07:40.197Z,92.93
2016-10-10T10:08:40.219Z,92.79
2016-10-10T10:09:39.918Z,93.36
2016-10-10T10:10:40.249Z,93.46
2016-10-10T10:11:40.270Z,91.83
2016-10-10T10:12:40.292Z,92.22
2016-10-10T10:13:40.437Z,91.17
2016-10-10T10:14:40.331Z,88.98
2016-10-10T10:15:40.358Z,89.64
2016-10-10T10:16:40.375Z,90.79
2016-10-10T10:17:40.392Z,87.35
2016-10-10T10:18:40.398Z,87.16
2016-10-10T10:19:40.417Z,87.93
2016-10-10T10:20:40.433Z,88.12
2016-10-10T10:21:40.476Z,87.83
2016-10-10T10:22:40.474Z,88.88
2016-10-10T10:23:40.498Z,88.59
2016-10-10T10:24:40.525Z,88.12
2016-10-10T10:25:40.228Z,87.74
2016-10-10T10:26:40.561Z,86.44
2016-10-10T10:27:40.573Z,86.54
2016-10-10T10:28:40.596Z,85.11
2016-10-10T10:29:40.619Z,84.16
2016-10-10T10:30:40.642Z,83.35
2016-10-10T10:31:40.647Z,83.64
2016-10-10T10:32:40.669Z,83.25
2016-10-10T10:33:40.698Z,83.06
2016-10-10T10:34:40.714Z,82.49
2016-10-10T10:35:40.733Z,80.39
2016-10-10T10:36:40.765Z,80.24
2016-10-10T10:37:40.467Z,79.1
2016-10-10T10:38:40.797Z,78.72
2016-10-10T10:39:40.852Z,78.81
2016-10-10T10:40:40.835Z,80.05
2016-10-10T10:41:40.848Z,80.72
2016-10-10T10:42:40.867Z,81.86
2016-10-10T10:43:40.889Z,82.29
2016-10-10T10:44:40.905Z,82.29
2016-10-10T10:45:40.925Z,81.81
2016-10-10T10:46:40.943Z,81.95
2016-10-10T10:47:40.992Z,80.61
2016-10-10T10:48:41.001Z,78.74
2016-10-10T10:49:41.019Z,77.5
2016-10-10T10:50:41.031Z,72.85
2016-10-10T10:51:41.068Z,71.61
2016-10-10T10:52:41.076Z,70.65
2016-10-10T10:53:41.081Z,69.98
2016-10-10T10:54:41.263Z,69.92
2016-10-10T10:55:41.139Z,70.11
2016-10-10T10:56:41.152Z,69.44
2016-10-10T10:57:41.170Z,68.68
2016-10-10T10:58:41.196Z,67.47
2016-10-10T10:59:41.212Z,66.89
2016-10-10T11:00:40.924Z,67.02
2016-10-10T11:01:41.251Z,65.62
2016-10-10T11:02:41.287Z,64.56
2016-10-10T11:03:40.995Z,64.09
2016-10-10T11:04:41.324Z,64.18
2016-10-10T11:05:41.340Z,64.28
2016-10-10T11:06:41.366Z,63.7
2016-10-10T11:07:41.397Z,63.89
2016-10-10T11:08:41.415Z,63.13
2016-10-10T11:09:41.451Z,62.55
2016-10-10T11:10:41.476Z,61.88
2016-10-10T11:11:41.486Z,63.03
2016-10-10T11:12:41.546Z,63.03
2016-10-10T11:13:41.528Z,63.48
2016-10-10T11:14:41.251Z,63.19
2016-10-10T11:15:41.565Z,63.54
2016-10-10T11:16:41.593Z,64.22
2016-10-10T11:17:41.680Z,64.66
2016-10-10T11:18:41.634Z,65.08
2016-10-10T11:19:41.671Z,65.94
2016-10-10T11:20:41.697Z,66.96
2016-10-10T11:21:41.728Z,67.53
2016-10-10T11:22:41.729Z,67.97
2016-10-10T11:23:41.739Z,68.16
2016-10-10T11:24:41.779Z,68.93
2016-10-10T11:25:41.787Z,69.5
2016-10-10T11:26:41.516Z,70.52
2016-10-10T11:27:41.965Z,70.9
2016-10-10T11:28:41.914Z,70.04
2016-10-10T11:29:41.985Z,70.33
2016-10-10T11:30:41.965Z,70.71
2016-10-10T11:31:41.927Z,71.19
2016-10-10T11:32:41.984Z,72.05
2016-10-10T11:33:41.975Z,72.81
2016-10-10T11:34:41.997Z,73.58
2016-10-10T11:35:42.015Z,73.96
2016-10-10T11:36:42.048Z,73.77
2016-10-10T11:37:42.069Z,75.39
2016-10-10T11:38:42.097Z,76.16
2016-10-10T11:39:42.111Z,74.91
2016-10-10T11:40:42.215Z,75.49
2016-10-10T11:41:42.191Z,74.24
2016-10-10T11:42:42.175Z,73.1
2016-10-10T11:43:42.185Z,74.24
2016-10-10T11:44:42.215Z,73.58
2016-10-10T11:45:42.232Z,73.67
2016-10-10T11:46:42.265Z,73.48
2016-10-10T11:47:42.275Z,73
2016-10-10T11:48:42.302Z,73.86
2016-10-10T11:49:42.329Z,73.67
2016-10-10T11:50:42.345Z,73.67
2016-10-10T11:51:42.364Z,73.96
2016-10-10T11:52:42.384Z,73.14
2016-10-10T11:53:42.504Z,72.56
2016-10-10T11:54:42.117Z,69.89
2016-10-10T11:55:42.445Z,69.98
2016-10-10T11:56:42.465Z,70.46
2016-10-10T11:57:42.506Z,68.74
2016-10-10T11:58:42.535Z,67.21
2016-10-10T11:59:42.549Z,65.58
2016-10-10T12:00:42.558Z,64.91
2016-10-10T12:01:42.584Z,66.92
2016-10-10T12:02:42.605Z,68.07
2016-10-10T12:03:42.624Z,68.7
2016-10-10T12:04:42.640Z,68.45
2016-10-10T12:05:42.674Z,69.76
2016-10-10T12:06:42.688Z,68.93
2016-10-10T12:07:42.709Z,69.95
2016-10-10T12:08:42.736Z,71.7
2016-10-10T12:09:42.747Z,72.08
2016-10-10T12:10:42.792Z,70.07
2016-10-10T12:11:42.497Z,72.08
2016-10-10T12:12:42.815Z,73.04
2016-10-10T12:13:42.558Z,72.94
2016-10-10T12:14:42.886Z,73.33
2016-10-10T12:15:42.916Z,73.61
2016-10-10T12:16:42.918Z,74.82
2016-10-10T12:17:42.949Z,75.01
2016-10-10T12:18:42.970Z,74.28
2016-10-10T12:19:42.989Z,74.66
2016-10-10T12:20:42.686Z,74.48
2016-10-10T12:21:43.015Z,74.09
2016-10-10T12:22:42.726Z,74.04
2016-10-10T12:23:43.059Z,73.84
2016-10-10T12:24:43.083Z,73.65
2016-10-10T12:25:43.168Z,72.92
2016-10-10T12:26:43.127Z,72.6
2016-10-10T12:27:43.169Z,70.97
2016-10-10T12:28:43.191Z,72.12
2016-10-10T12:29:43.208Z,72.31
2016-10-10T12:30:43.218Z,72.22
2016-10-10T12:31:43.267Z,70.72
2016-10-10T12:32:43.266Z,70.24
2016-10-10T12:33:42.987Z,69.48
2016-10-10T12:34:43.010Z,68.17
2016-10-10T12:35:43.339Z,68.33
2016-10-10T12:36:43.356Z,69.06
2016-10-10T12:37:43.373Z,70.59
2016-10-10T12:38:43.490Z,71.22
2016-10-10T12:39:43.419Z,71.16
2016-10-10T12:40:43.543Z,71.26
2016-10-10T12:41:43.478Z,71.07
2016-10-10T12:42:43.508Z,71.64
2016-10-10T12:43:43.510Z,72.12
2016-10-10T12:44:43.544Z,72.12
2016-10-10T12:45:43.566Z,71.39
2016-10-10T12:46:43.580Z,71.3
2016-10-10T12:47:43.600Z,71.39
2016-10-10T12:48:43.308Z,71.62
2016-10-10T12:49:43.343Z,69.99
2016-10-10T12:50:43.695Z,66.83
2016-10-10T12:51:43.695Z,66.45
2016-10-10T12:52:43.722Z,68.04
2016-10-10T12:53:43.747Z,68.87
2016-10-10T12:54:43.759Z,68.2
2016-10-10T12:55:43.822Z,68.87
2016-10-10T12:56:43.822Z,68.2